Airfield :
LOGIN :

Register | Disclaimer

   EN    FR    IT 

 










Legend :    VFR   Marginal VFR   IFR   Intensive IFR   Very Intensive IFR
Visi :
Ceiling :
>= 8 km
>= 3000ft
5 to 8 km
1000 to 3000 ft
1500m to 5 km
500 to 1000 ft
800 to 1500m
200 to 500 ft
< 800m
< 200 ft
Symbols :   Thunderstorms  Fog  Heavy snow  Heavy precipitations  Wind > 20 kt
SIGMETs :     Misc.  Thunderstorms  Icing  Turbulence  Mountain Waves  Volcanic Ashes






- Airport Elevation : 128 ft


ETND - Diepholz

CURRENT METAR :
  • 191320Z 23008KT 9999 SCT013 BKN080 07/05 Q1015 BLU BLU TEMPO GRN

EXPIRED METARs :
  • 191300Z 23008KT 9999 FEW009 BKN013 BKN080 07/06 Q1015 GRN GRN BECMG BLU
  • 191220Z 23008KT 9999 FEW009 SCT013 BKN078 07/05 Q1015 BLU GRN BECMG BLU
  • 191120Z 23008KT 9999 FEW007 BKN009 BKN080 07/06 Q1014 GRN GRN BECMG BLU

TAF TAF ETND
Valid from the 19 at 12:00 until the 19 at 21:00 UTC


191128Z 1912/1921 23012G22KT 9999 NSW BKN010
BECMG 1912/1914 22012KT 9999 NSW SCT010 BKN030
TEMPO 1914/1918 21013G23KT 4000 SHRA BKN010 BKN020TCU
BECMG 1919/1921 22005KT 3000 BR SCT050 BY ETGL



MET'MAP, your aeronautical weather chart ! - Copyright ORBIFLY December 2007 - Disclaimer

ORBIFLY MET'MAP TEAM :

Programming & Development : Alexandra Zaïnal
Concept & Development : Baudouin d'Aumeries
Co-Development & Prog : Marc-Olivier Méhu
Technical & hardware support : Manuel Goepfert

Contact : metmap@orbifly.com




SOURCES & CREDITS :

   NOAA